Milwaukee, Wisconsin
Traffic Map
Current Weather Conditions
Milwaukee, Wisconsin
Few Clouds
Few Clouds
88°
Feels Like: 92°
Wind Chill: 88° Ceiling: Unl
Heat Index: 92° Visibility: 10mi
Dew Point: 68° Wind: 14mph
Humidity: 51% Direction: 220° (SW)
Pressure: 29.96in Gusts: 0mph
Raw Report DataKMKE 012152Z 22012KT 10SM FEW045 FEW075 31/20 A2996 RMK AO2 SLP141 T03110200
Traffic Incident Summary
Active as of:
Severity:
Category:
InformationThere was an issue retrieving the traffic information for this location. Please try a different location or try again shortly.
Advertisements
Track Severe Weather on mobile